Fort Abbas Weather



Fort Abbas's Current Weather

Temprature 33.25o clear sky

clear sky

Rain: 0 %

Min Temprature33.25o
Max Temprature33.25o
Humidity33
Wind Speed4.8 m/h
Sun Rise05:41:19
Sun Set18:41:52
Current Time: 23-Aug-2019 06:01:53
Lat/Lon: 29.19, 72.85




Fort Abbas's Geo Location



Fort Abbas's Weather Forecast

Time Overall Temp Min Temp Max Temp Humidity Wind Speed Rain
23-Aug-2019 (Fri)
08:00:00 few clouds 34.410 34.407 34.410 37 7.71 m/h 0 %
11:00:00 few clouds 38.550 38.550 38.550 28 7.07 m/h 0 %
14:00:00 clear sky 40.830 40.830 40.831 21 5.36 m/h 0 %
17:00:00 clear sky 41.010 41.010 41.011 19 5.51 m/h 0 %
20:00:00 clear sky 38.550 38.550 38.550 23 5.59 m/h 0 %
23:00:00 clear sky 37.042 37.042 37.042 25 5.89 m/h 0 %
24-Aug-2019 (Sat)
02:00:00 clear sky 35.231 35.231 35.231 29 5.22 m/h 0 %
05:00:00 clear sky 33.455 33.455 33.455 32 5.16 m/h 0 %
08:00:00 clear sky 34.257 34.257 34.257 38 8.24 m/h 0 %
11:00:00 clear sky 38.469 38.469 38.469 30 8.31 m/h 0 %
14:00:00 clear sky 41.269 41.269 41.269 21 6.67 m/h 0 %
17:00:00 clear sky 41.423 41.423 41.423 18 4.79 m/h 0 %
20:00:00 clear sky 38.850 38.850 38.850 22 4.48 m/h 0 %
23:00:00 clear sky 37.269 37.269 37.269 24 6.05 m/h 0 %
25-Aug-2019 (Sun)
02:00:00 clear sky 35.231 35.231 35.231 28 6.5 m/h 0 %
05:00:00 clear sky 33.357 33.357 33.357 31 6.94 m/h 0 %
08:00:00 clear sky 33.714 33.714 33.714 43 7.6 m/h 0 %
11:00:00 clear sky 38.416 38.416 38.416 30 8.63 m/h 0 %
14:00:00 scattered clouds 41.950 41.950 41.950 20 6.57 m/h 0 %
17:00:00 few clouds 41.750 41.750 41.750 18 5.02 m/h 0 %
20:00:00 clear sky 39.081 39.081 39.081 22 4.99 m/h 0 %
23:00:00 clear sky 37.511 37.511 37.511 26 6.92 m/h 0 %
26-Aug-2019 (Mon)
02:00:00 few clouds 35.665 35.665 35.665 29 5.94 m/h 0 %
05:00:00 broken clouds 34.550 34.550 34.550 33 7.13 m/h 0 %
08:00:00 broken clouds 34.967 34.967 34.967 35 6.44 m/h 0 %
11:00:00 broken clouds 39.272 39.272 39.272 26 4.05 m/h 0 %
14:00:00 broken clouds 41.584 41.584 41.584 20 1.31 m/h 0 %
17:00:00 overcast clouds 42.220 42.220 42.220 18 2.5 m/h 0 %
20:00:00 overcast clouds 39.572 39.572 39.572 21 2.21 m/h 0 %
23:00:00 scattered clouds 37.214 37.214 37.214 34 6.23 m/h 0 %
27-Aug-2019 (Tue)
02:00:00 overcast clouds 35.816 35.816 35.816 39 6.39 m/h 0 %
05:00:00 broken clouds 33.850 33.850 33.850 47 5.93 m/h 0 %
08:00:00 broken clouds 35.035 35.035 35.035 43 6.85 m/h 0 %
11:00:00 scattered clouds 39.336 39.336 39.336 30 5.73 m/h 0 %
14:00:00 few clouds 41.036 41.036 41.036 26 3.5 m/h 0 %
17:00:00 scattered clouds 40.265 40.265 40.265 27 3.88 m/h 0 %
20:00:00 light rain 38.550 38.550 38.550 32 3.83 m/h 69 %
23:00:00 broken clouds 36.750 36.750 36.750 37 5.21 m/h 0 %
28-Aug-2019 (Wed)
02:00:00 broken clouds 35.357 35.357 35.357 40 3.55 m/h 0 %
05:00:00 broken clouds 34.472 34.472 34.472 47 3.8 m/h 0 %

Famous Cities (61)